sensor_id;sensor_type;location;lat;lon;timestamp;pressure;altitude;pressure_sealevel;temperature;humidity
1832;BME280;1680;48.106;11.708;2023-05-19T00:00:17;95960.31;;;11.09;94.30
1832;BME280;1680;48.106;11.708;2023-05-19T00:02:46;95952.88;;;11.06;93.86
1832;BME280;1680;48.106;11.708;2023-05-19T00:05:13;95954.84;;;11.10;93.26
1832;BME280;1680;48.106;11.708;2023-05-19T00:07:45;95942.19;;;11.07;94.45
1832;BME280;1680;48.106;11.708;2023-05-19T00:10:14;95945.69;;;11.19;93.35
1832;BME280;1680;48.106;11.708;2023-05-19T00:12:42;95936.16;;;11.25;92.64
1832;BME280;1680;48.106;11.708;2023-05-19T00:15:10;95938.31;;;11.10;93.73
1832;BME280;1680;48.106;11.708;2023-05-19T00:17:37;95940.03;;;10.98;93.50
1832;BME280;1680;48.106;11.708;2023-05-19T00:20:07;95931.75;;;10.94;95.18
1832;BME280;1680;48.106;11.708;2023-05-19T00:22:36;95926.63;;;11.06;95.23
1832;BME280;1680;48.106;11.708;2023-05-19T00:25:05;95929.41;;;11.11;95.75
1832;BME280;1680;48.106;11.708;2023-05-19T00:27:33;95925.19;;;11.10;95.49
1832;BME280;1680;48.106;11.708;2023-05-19T00:30:00;95925.50;;;10.95;95.53
1832;BME280;1680;48.106;11.708;2023-05-19T00:32:27;95925.44;;;11.02;95.80
1832;BME280;1680;48.106;11.708;2023-05-19T00:34:54;95927.16;;;10.90;96.67
1832;BME280;1680;48.106;11.708;2023-05-19T00:37:21;95914.56;;;10.98;96.34
1832;BME280;1680;48.106;11.708;2023-05-19T00:39:48;95910.09;;;11.05;96.11
1832;BME280;1680;48.106;11.708;2023-05-19T00:42:17;95913.78;;;10.98;95.67
1832;BME280;1680;48.106;11.708;2023-05-19T00:44:44;95910.16;;;10.99;96.93
1832;BME280;1680;48.106;11.708;2023-05-19T00:47:11;95901.25;;;11.00;96.64
1832;BME280;1680;48.106;11.708;2023-05-19T00:49:38;95907.28;;;11.00;97.25
1832;BME280;1680;48.106;11.708;2023-05-19T00:52:06;95904.00;;;11.05;95.83
1832;BME280;1680;48.106;11.708;2023-05-19T00:54:33;95921.72;;;11.09;96.81
1832;BME280;1680;48.106;11.708;2023-05-19T00:57:01;95905.56;;;11.12;97.03
1832;BME280;1680;48.106;11.708;2023-05-19T00:59:29;95904.78;;;11.12;96.03
1832;BME280;1680;48.106;11.708;2023-05-19T01:01:57;95903.72;;;10.95;97.83
1832;BME280;1680;48.106;11.708;2023-05-19T01:04:24;95878.78;;;11.04;96.90
1832;BME280;1680;48.106;11.708;2023-05-19T01:06:51;95896.19;;;11.23;96.31
1832;BME280;1680;48.106;11.708;2023-05-19T01:09:20;95899.63;;;11.23;96.38
1832;BME280;1680;48.106;11.708;2023-05-19T01:11:47;95901.78;;;11.26;95.96
1832;BME280;1680;48.106;11.708;2023-05-19T01:14:15;95900.13;;;11.14;97.27
1832;BME280;1680;48.106;11.708;2023-05-19T01:16:47;95904.78;;;11.12;97.43
1832;BME280;1680;48.106;11.708;2023-05-19T01:19:30;95899.66;;;11.17;96.76
1832;BME280;1680;48.106;11.708;2023-05-19T01:22:13;95900.25;;;11.01;97.73
1832;BME280;1680;48.106;11.708;2023-05-19T01:25:07;95895.75;;;11.26;95.58
1832;BME280;1680;48.106;11.708;2023-05-19T01:30:39;95898.38;;;11.26;96.23
1832;BME280;1680;48.106;11.708;2023-05-19T01:33:08;95853.38;;;10.80;97.63
1832;BME280;1680;48.106;11.708;2023-05-19T01:35:37;95906.50;;;11.00;98.70
1832;BME280;1680;48.106;11.708;2023-05-19T01:38:07;95907.88;;;11.02;99.13
1832;BME280;1680;48.106;11.708;2023-05-19T01:40:36;95911.34;;;10.96;99.24
1832;BME280;1680;48.106;11.708;2023-05-19T01:43:05;95910.22;;;11.10;98.56
1832;BME280;1680;48.106;11.708;2023-05-19T01:45:33;95895.56;;;11.03;99.95
1832;BME280;1680;48.106;11.708;2023-05-19T01:48:03;95904.59;;;11.07;100.00
1832;BME280;1680;48.106;11.708;2023-05-19T01:50:31;95907.22;;;11.07;99.27
1832;BME280;1680;48.106;11.708;2023-05-19T01:52:59;95907.53;;;10.99;100.00
1832;BME280;1680;48.106;11.708;2023-05-19T01:55:27;95906.81;;;11.10;99.30
1832;BME280;1680;48.106;11.708;2023-05-19T01:58:01;95901.44;;;10.98;99.38
1832;BME280;1680;48.106;11.708;2023-05-19T02:00:40;95915.81;;;10.96;100.00
1832;BME280;1680;48.106;11.708;2023-05-19T02:03:24;95910.44;;;11.09;99.93
1832;BME280;1680;48.106;11.708;2023-05-19T02:05:59;95904.84;;;11.05;100.00
1832;BME280;1680;48.106;11.708;2023-05-19T02:08:33;95853.81;;;10.77;100.00
1832;BME280;1680;48.106;11.708;2023-05-19T02:11:13;95902.44;;;11.22;98.68
1832;BME280;1680;48.106;11.708;2023-05-19T02:13:43;95901.41;;;11.05;99.50
1832;BME280;1680;48.106;11.708;2023-05-19T02:16:12;95900.50;;;10.93;100.00
1832;BME280;1680;48.106;11.708;2023-05-19T02:18:40;95896.78;;;11.00;100.00
1832;BME280;1680;48.106;11.708;2023-05-19T02:21:09;95915.22;;;10.94;100.00
1832;BME280;1680;48.106;11.708;2023-05-19T02:23:38;95897.16;;;11.04;100.00
1832;BME280;1680;48.106;11.708;2023-05-19T02:26:06;95892.63;;;10.93;100.00
1832;BME280;1680;48.106;11.708;2023-05-19T02:28:34;95887.06;;;11.07;99.98
1832;BME280;1680;48.106;11.708;2023-05-19T02:31:02;95888.75;;;10.95;100.00
1832;BME280;1680;48.106;11.708;2023-05-19T02:33:33;95895.25;;;10.93;100.00
1832;BME280;1680;48.106;11.708;2023-05-19T02:36:02;95887.22;;;10.88;100.00
1832;BME280;1680;48.106;11.708;2023-05-19T02:38:29;95870.69;;;10.87;100.00
1832;BME280;1680;48.106;11.708;2023-05-19T02:40:56;95883.75;;;10.94;100.00
1832;BME280;1680;48.106;11.708;2023-05-19T02:43:24;95883.09;;;10.98;100.00
1832;BME280;1680;48.106;11.708;2023-05-19T02:45:51;95879.25;;;11.01;100.00
1832;BME280;1680;48.106;11.708;2023-05-19T02:48:18;95887.16;;;10.94;100.00
1832;BME280;1680;48.106;11.708;2023-05-19T02:50:45;95884.81;;;10.86;100.00
1832;BME280;1680;48.106;11.708;2023-05-19T02:53:13;95876.47;;;10.96;100.00
1832;BME280;1680;48.106;11.708;2023-05-19T02:55:41;95892.16;;;10.78;100.00
1832;BME280;1680;48.106;11.708;2023-05-19T02:58:08;95888.75;;;10.77;100.00
1832;BME280;1680;48.106;11.708;2023-05-19T03:00:35;95869.72;;;10.82;100.00
1832;BME280;1680;48.106;11.708;2023-05-19T03:03:02;95877.00;;;10.80;100.00
1832;BME280;1680;48.106;11.708;2023-05-19T03:05:30;95875.56;;;11.02;100.00
1832;BME280;1680;48.106;11.708;2023-05-19T03:07:57;95862.44;;;11.02;100.00
1832;BME280;1680;48.106;11.708;2023-05-19T03:10:25;95864.34;;;10.95;100.00
1832;BME280;1680;48.106;11.708;2023-05-19T03:12:52;95869.31;;;11.03;100.00
1832;BME280;1680;48.106;11.708;2023-05-19T03:15:20;95868.59;;;10.96;100.00
1832;BME280;1680;48.106;11.708;2023-05-19T03:17:47;95866.22;;;10.88;100.00
1832;BME280;1680;48.106;11.708;2023-05-19T03:20:15;95877.22;;;10.78;100.00
1832;BME280;1680;48.106;11.708;2023-05-19T03:22:42;95876.47;;;10.71;100.00
1832;BME280;1680;48.106;11.708;2023-05-19T03:25:09;95886.91;;;10.78;100.00
1832;BME280;1680;48.106;11.708;2023-05-19T03:27:38;95881.44;;;10.79;100.00
1832;BME280;1680;48.106;11.708;2023-05-19T03:30:06;95869.72;;;10.82;100.00
1832;BME280;1680;48.106;11.708;2023-05-19T03:32:33;95879.13;;;10.89;100.00
1832;BME280;1680;48.106;11.708;2023-05-19T03:35:02;95875.41;;;10.79;100.00
1832;BME280;1680;48.106;11.708;2023-05-19T03:37:29;95865.91;;;10.78;100.00
1832;BME280;1680;48.106;11.708;2023-05-19T03:39:56;95867.03;;;10.88;100.00
1832;BME280;1680;48.106;11.708;2023-05-19T03:42:23;95863.06;;;10.79;100.00
1832;BME280;1680;48.106;11.708;2023-05-19T03:44:52;95864.06;;;10.85;100.00
1832;BME280;1680;48.106;11.708;2023-05-19T03:47:19;95853.25;;;10.93;100.00
1832;BME280;1680;48.106;11.708;2023-05-19T03:49:46;95860.59;;;10.84;100.00
1832;BME280;1680;48.106;11.708;2023-05-19T03:52:13;95859.00;;;10.83;100.00
1832;BME280;1680;48.106;11.708;2023-05-19T03:54:41;95863.75;;;10.93;100.00
1832;BME280;1680;48.106;11.708;2023-05-19T03:57:09;95856.97;;;10.85;100.00
1832;BME280;1680;48.106;11.708;2023-05-19T03:59:36;95872.22;;;10.95;100.00
1832;BME280;1680;48.106;11.708;2023-05-19T04:02:07;95862.28;;;10.79;100.00
1832;BME280;1680;48.106;11.708;2023-05-19T04:04:34;95869.88;;;10.87;100.00
1832;BME280;1680;48.106;11.708;2023-05-19T04:07:02;95860.41;;;10.86;100.00
1832;BME280;1680;48.106;11.708;2023-05-19T04:09:29;95862.16;;;10.92;100.00
1832;BME280;1680;48.106;11.708;2023-05-19T04:11:59;95859.38;;;10.87;100.00
1832;BME280;1680;48.106;11.708;2023-05-19T04:14:27;95863.03;;;10.86;100.00
1832;BME280;1680;48.106;11.708;2023-05-19T04:16:55;95854.88;;;10.94;100.00
1832;BME280;1680;48.106;11.708;2023-05-19T04:19:23;95869.44;;;10.90;100.00
1832;BME280;1680;48.106;11.708;2023-05-19T04:21:51;95855.53;;;10.89;100.00
1832;BME280;1680;48.106;11.708;2023-05-19T04:24:18;95866.31;;;10.99;100.00
1832;BME280;1680;48.106;11.708;2023-05-19T04:26:45;95865.31;;;11.00;100.00
1832;BME280;1680;48.106;11.708;2023-05-19T04:29:12;95857.44;;;11.00;100.00
1832;BME280;1680;48.106;11.708;2023-05-19T04:31:42;95869.56;;;11.19;100.00
1832;BME280;1680;48.106;11.708;2023-05-19T04:34:09;95868.63;;;11.14;100.00
1832;BME280;1680;48.106;11.708;2023-05-19T04:36:38;95865.63;;;11.28;100.00
1832;BME280;1680;48.106;11.708;2023-05-19T04:39:05;95867.06;;;11.24;100.00
1832;BME280;1680;48.106;11.708;2023-05-19T04:41:35;95872.19;;;11.19;100.00
1832;BME280;1680;48.106;11.708;2023-05-19T04:44:04;95874.81;;;11.19;100.00
1832;BME280;1680;48.106;11.708;2023-05-19T04:46:33;95870.06;;;11.10;100.00
1832;BME280;1680;48.106;11.708;2023-05-19T04:49:00;95866.13;;;11.01;100.00
1832;BME280;1680;48.106;11.708;2023-05-19T04:51:27;95867.88;;;11.07;100.00
1832;BME280;1680;48.106;11.708;2023-05-19T04:53:57;95862.91;;;11.17;100.00
1832;BME280;1680;48.106;11.708;2023-05-19T04:56:24;95861.88;;;11.18;100.00
1832;BME280;1680;48.106;11.708;2023-05-19T04:58:51;95868.16;;;11.17;100.00
1832;BME280;1680;48.106;11.708;2023-05-19T05:01:19;95854.47;;;11.33;100.00
1832;BME280;1680;48.106;11.708;2023-05-19T05:03:50;95852.50;;;11.28;100.00
1832;BME280;1680;48.106;11.708;2023-05-19T05:06:19;95850.22;;;11.32;100.00
1832;BME280;1680;48.106;11.708;2023-05-19T05:08:46;95842.75;;;11.35;100.00
1832;BME280;1680;48.106;11.708;2023-05-19T05:11:16;95838.72;;;11.33;100.00
1832;BME280;1680;48.106;11.708;2023-05-19T05:13:43;95842.22;;;11.45;100.00
1832;BME280;1680;48.106;11.708;2023-05-19T05:16:12;95846.03;;;11.31;100.00
1832;BME280;1680;48.106;11.708;2023-05-19T05:18:39;95853.81;;;11.37;100.00
1832;BME280;1680;48.106;11.708;2023-05-19T05:21:08;95842.34;;;11.32;100.00
1832;BME280;1680;48.106;11.708;2023-05-19T05:23:35;95844.84;;;11.27;100.00
1832;BME280;1680;48.106;11.708;2023-05-19T05:26:08;95847.03;;;11.12;100.00
1832;BME280;1680;48.106;11.708;2023-05-19T05:28:40;95844.53;;;11.17;100.00
1832;BME280;1680;48.106;11.708;2023-05-19T05:31:07;95831.66;;;11.33;100.00
1832;BME280;1680;48.106;11.708;2023-05-19T05:33:34;95835.06;;;11.34;100.00
1832;BME280;1680;48.106;11.708;2023-05-19T05:36:01;95835.81;;;11.41;100.00
1832;BME280;1680;48.106;11.708;2023-05-19T05:38:29;95823.84;;;11.45;99.63
1832;BME280;1680;48.106;11.708;2023-05-19T05:40:56;95840.16;;;11.47;99.25
1832;BME280;1680;48.106;11.708;2023-05-19T05:43:23;95840.81;;;11.42;100.00
1832;BME280;1680;48.106;11.708;2023-05-19T05:45:51;95846.81;;;11.49;98.48
1832;BME280;1680;48.106;11.708;2023-05-19T05:48:19;95852.72;;;11.45;100.00
1832;BME280;1680;48.106;11.708;2023-05-19T05:50:47;95858.72;;;11.69;99.73
1832;BME280;1680;48.106;11.708;2023-05-19T05:53:18;95854.03;;;11.71;98.01
1832;BME280;1680;48.106;11.708;2023-05-19T05:55:45;95845.72;;;11.74;98.51
1832;BME280;1680;48.106;11.708;2023-05-19T05:58:13;95852.28;;;11.83;96.65
1832;BME280;1680;48.106;11.708;2023-05-19T06:00:41;95840.59;;;11.79;97.47
1832;BME280;1680;48.106;11.708;2023-05-19T06:03:10;95845.97;;;12.02;96.96
1832;BME280;1680;48.106;11.708;2023-05-19T06:05:38;95850.50;;;12.25;94.09
1832;BME280;1680;48.106;11.708;2023-05-19T06:08:06;95846.00;;;12.25;94.59
1832;BME280;1680;48.106;11.708;2023-05-19T06:10:33;95845.91;;;12.32;94.63
1832;BME280;1680;48.106;11.708;2023-05-19T06:13:02;95849.03;;;12.40;91.51
1832;BME280;1680;48.106;11.708;2023-05-19T06:15:30;95855.56;;;12.38;91.74
1832;BME280;1680;48.106;11.708;2023-05-19T06:17:57;95792.84;;;11.82;93.14
1832;BME280;1680;48.106;11.708;2023-05-19T06:20:25;95850.59;;;12.18;95.20
1832;BME280;1680;48.106;11.708;2023-05-19T06:22:52;95850.38;;;12.31;93.59
1832;BME280;1680;48.106;11.708;2023-05-19T06:25:19;95844.03;;;12.50;92.51
1832;BME280;1680;48.106;11.708;2023-05-19T06:27:47;95856.16;;;12.62;93.74
1832;BME280;1680;48.106;11.708;2023-05-19T06:30:14;95843.53;;;12.94;90.73
1832;BME280;1680;48.106;11.708;2023-05-19T06:32:41;95850.63;;;13.05;90.11
1832;BME280;1680;48.106;11.708;2023-05-19T06:35:08;95848.19;;;13.15;88.17
1832;BME280;1680;48.106;11.708;2023-05-19T06:37:37;95791.41;;;12.73;88.21
1832;BME280;1680;48.106;11.708;2023-05-19T06:40:05;95844.47;;;13.61;90.59
1832;BME280;1680;48.106;11.708;2023-05-19T06:42:32;95845.16;;;13.68;87.30
1832;BME280;1680;48.106;11.708;2023-05-19T06:45:00;95846.44;;;13.55;85.97
1832;BME280;1680;48.106;11.708;2023-05-19T06:47:27;95851.59;;;13.50;85.19
1832;BME280;1680;48.106;11.708;2023-05-19T06:49:54;95850.44;;;13.57;86.01
1832;BME280;1680;48.106;11.708;2023-05-19T06:52:21;95853.06;;;13.68;84.12
1832;BME280;1680;48.106;11.708;2023-05-19T06:54:50;95857.09;;;13.87;84.28
1832;BME280;1680;48.106;11.708;2023-05-19T06:57:17;95848.53;;;14.20;82.18
1832;BME280;1680;48.106;11.708;2023-05-19T06:59:45;95848.25;;;14.49;82.03
1832;BME280;1680;48.106;11.708;2023-05-19T07:02:12;95848.44;;;14.59;77.98
1832;BME280;1680;48.106;11.708;2023-05-19T07:04:39;95854.00;;;14.46;78.92
1832;BME280;1680;48.106;11.708;2023-05-19T07:07:07;95853.06;;;14.36;79.12
1832;BME280;1680;48.106;11.708;2023-05-19T07:09:34;95848.47;;;14.31;79.44
1832;BME280;1680;48.106;11.708;2023-05-19T07:12:03;95850.91;;;14.49;77.07
1832;BME280;1680;48.106;11.708;2023-05-19T07:14:30;95860.25;;;14.56;76.25
1832;BME280;1680;48.106;11.708;2023-05-19T07:16:57;95856.06;;;14.28;77.76
1832;BME280;1680;48.106;11.708;2023-05-19T07:19:25;95849.13;;;14.10;76.89
1832;BME280;1680;48.106;11.708;2023-05-19T07:21:52;95852.53;;;14.22;81.94
1832;BME280;1680;48.106;11.708;2023-05-19T07:24:21;95850.78;;;14.28;77.79
1832;BME280;1680;48.106;11.708;2023-05-19T07:26:49;95860.09;;;14.63;79.18
1832;BME280;1680;48.106;11.708;2023-05-19T07:29:17;95852.22;;;14.79;76.90
1832;BME280;1680;48.106;11.708;2023-05-19T07:31:44;95860.19;;;14.84;79.36
1832;BME280;1680;48.106;11.708;2023-05-19T07:34:12;95851.28;;;15.07;74.58
1832;BME280;1680;48.106;11.708;2023-05-19T07:36:39;95824.97;;;15.12;75.41
1832;BME280;1680;48.106;11.708;2023-05-19T07:39:06;95844.59;;;15.53;75.69
1832;BME280;1680;48.106;11.708;2023-05-19T07:41:33;95844.28;;;15.71;73.22
1832;BME280;1680;48.106;11.708;2023-05-19T07:44:00;95844.97;;;15.83;71.03
1832;BME280;1680;48.106;11.708;2023-05-19T07:46:33;95841.16;;;15.74;72.40
1832;BME280;1680;48.106;11.708;2023-05-19T07:49:00;95831.56;;;15.68;71.24
1832;BME280;1680;48.106;11.708;2023-05-19T07:51:27;95841.81;;;15.86;71.39
1832;BME280;1680;48.106;11.708;2023-05-19T07:53:54;95841.59;;;15.88;73.35
1832;BME280;1680;48.106;11.708;2023-05-19T07:56:21;95835.19;;;15.84;72.24
1832;BME280;1680;48.106;11.708;2023-05-19T07:58:49;95843.75;;;16.17;71.57
1832;BME280;1680;48.106;11.708;2023-05-19T08:01:16;95840.97;;;15.81;71.35
1832;BME280;1680;48.106;11.708;2023-05-19T08:03:45;95836.81;;;15.63;71.28
1832;BME280;1680;48.106;11.708;2023-05-19T08:06:12;95839.22;;;15.27;72.80
1832;BME280;1680;48.106;11.708;2023-05-19T08:08:39;95846.66;;;15.14;73.59
1832;BME280;1680;48.106;11.708;2023-05-19T08:11:06;95846.34;;;14.94;74.94
1832;BME280;1680;48.106;11.708;2023-05-19T08:13:33;95843.97;;;14.92;73.01
1832;BME280;1680;48.106;11.708;2023-05-19T08:16:01;95847.16;;;14.78;75.84
1832;BME280;1680;48.106;11.708;2023-05-19T08:18:28;95855.00;;;14.73;76.09
1832;BME280;1680;48.106;11.708;2023-05-19T08:20:56;95847.31;;;14.71;75.99
1832;BME280;1680;48.106;11.708;2023-05-19T08:23:23;95848.13;;;14.72;76.41
1832;BME280;1680;48.106;11.708;2023-05-19T08:25:51;95851.63;;;14.61;76.18
1832;BME280;1680;48.106;11.708;2023-05-19T08:28:18;95844.91;;;14.53;77.72
1832;BME280;1680;48.106;11.708;2023-05-19T08:30:45;95839.31;;;14.50;78.89
1832;BME280;1680;48.106;11.708;2023-05-19T08:33:12;95852.13;;;14.58;78.20
1832;BME280;1680;48.106;11.708;2023-05-19T08:35:39;95847.16;;;14.45;78.67
1832;BME280;1680;48.106;11.708;2023-05-19T08:38:08;95844.63;;;14.22;78.30
1832;BME280;1680;48.106;11.708;2023-05-19T08:40:36;95841.50;;;14.25;79.01
1832;BME280;1680;48.106;11.708;2023-05-19T08:43:04;95845.34;;;14.34;77.17
1832;BME280;1680;48.106;11.708;2023-05-19T08:45:31;95846.34;;;14.61;76.82
1832;BME280;1680;48.106;11.708;2023-05-19T08:47:59;95840.13;;;14.67;78.29
1832;BME280;1680;48.106;11.708;2023-05-19T08:50:29;95833.72;;;14.63;77.41
1832;BME280;1680;48.106;11.708;2023-05-19T08:53:02;95846.03;;;14.41;77.60
1832;BME280;1680;48.106;11.708;2023-05-19T08:55:35;95851.47;;;14.51;76.73
1832;BME280;1680;48.106;11.708;2023-05-19T08:58:07;95857.84;;;14.39;77.50
1832;BME280;1680;48.106;11.708;2023-05-19T09:00:35;95842.66;;;14.29;78.39
1832;BME280;1680;48.106;11.708;2023-05-19T09:03:03;95788.56;;;13.87;78.58
1832;BME280;1680;48.106;11.708;2023-05-19T09:05:31;95833.91;;;14.12;79.61
1832;BME280;1680;48.106;11.708;2023-05-19T09:07:58;95838.22;;;14.18;79.75
1832;BME280;1680;48.106;11.708;2023-05-19T09:10:27;95842.09;;;14.27;78.62
1832;BME280;1680;48.106;11.708;2023-05-19T09:12:55;95842.97;;;14.33;79.24
1832;BME280;1680;48.106;11.708;2023-05-19T09:15:26;95844.59;;;14.50;78.73
1832;BME280;1680;48.106;11.708;2023-05-19T09:18:05;95837.06;;;14.42;77.61
1832;BME280;1680;48.106;11.708;2023-05-19T09:20:36;95839.47;;;14.44;78.21
1832;BME280;1680;48.106;11.708;2023-05-19T09:23:04;95842.91;;;14.44;78.03
1832;BME280;1680;48.106;11.708;2023-05-19T09:25:32;95837.06;;;14.58;76.72
1832;BME280;1680;48.106;11.708;2023-05-19T09:28:01;95838.69;;;14.92;75.58
1832;BME280;1680;48.106;11.708;2023-05-19T09:30:28;95829.47;;;14.95;73.86
1832;BME280;1680;48.106;11.708;2023-05-19T09:32:55;95826.34;;;14.98;72.63
1832;BME280;1680;48.106;11.708;2023-05-19T09:35:22;95827.78;;;15.05;71.74
1832;BME280;1680;48.106;11.708;2023-05-19T09:37:49;95839.16;;;14.89;73.28
1832;BME280;1680;48.106;11.708;2023-05-19T09:40:17;95826.91;;;14.67;73.32
1832;BME280;1680;48.106;11.708;2023-05-19T09:42:44;95822.69;;;14.66;74.12
1832;BME280;1680;48.106;11.708;2023-05-19T09:45:14;95834.50;;;14.47;74.70
1832;BME280;1680;48.106;11.708;2023-05-19T09:47:41;95826.03;;;14.45;75.64
1832;BME280;1680;48.106;11.708;2023-05-19T09:50:10;95832.97;;;14.35;75.15
1832;BME280;1680;48.106;11.708;2023-05-19T09:52:39;95831.13;;;14.35;76.98
1832;BME280;1680;48.106;11.708;2023-05-19T09:55:09;95828.03;;;14.38;77.09
1832;BME280;1680;48.106;11.708;2023-05-19T09:57:38;95827.13;;;14.33;76.20
1832;BME280;1680;48.106;11.708;2023-05-19T10:00:07;95824.72;;;14.31;75.87
1832;BME280;1680;48.106;11.708;2023-05-19T10:02:42;95823.47;;;14.50;75.68
1832;BME280;1680;48.106;11.708;2023-05-19T10:05:12;95824.91;;;14.57;74.98
1832;BME280;1680;48.106;11.708;2023-05-19T10:07:42;95818.41;;;14.32;76.01
1832;BME280;1680;48.106;11.708;2023-05-19T10:10:11;95825.63;;;14.53;74.99
1832;BME280;1680;48.106;11.708;2023-05-19T10:12:39;95814.44;;;14.62;74.70
1832;BME280;1680;48.106;11.708;2023-05-19T10:15:08;95814.22;;;14.80;76.51
1832;BME280;1680;48.106;11.708;2023-05-19T10:17:37;95820.41;;;14.91;73.81
1832;BME280;1680;48.106;11.708;2023-05-19T10:20:08;95755.03;;;14.60;73.15
1832;BME280;1680;48.106;11.708;2023-05-19T10:22:37;95819.31;;;14.87;73.18
1832;BME280;1680;48.106;11.708;2023-05-19T10:25:05;95818.28;;;14.88;72.63
1832;BME280;1680;48.106;11.708;2023-05-19T10:27:35;95826.59;;;14.63;72.82
1832;BME280;1680;48.106;11.708;2023-05-19T10:30:07;95827.00;;;14.72;73.90
1832;BME280;1680;48.106;11.708;2023-05-19T10:32:37;95767.19;;;14.28;74.16
1832;BME280;1680;48.106;11.708;2023-05-19T10:35:21;95814.84;;;14.71;73.08
1832;BME280;1680;48.106;11.708;2023-05-19T10:37:55;95818.63;;;14.75;74.26
1832;BME280;1680;48.106;11.708;2023-05-19T10:40:26;95808.09;;;14.80;74.23
1832;BME280;1680;48.106;11.708;2023-05-19T10:43:07;95808.09;;;14.96;73.41
1832;BME280;1680;48.106;11.708;2023-05-19T10:45:45;95807.28;;;15.12;73.06
1832;BME280;1680;48.106;11.708;2023-05-19T10:48:14;95800.47;;;15.33;73.22
1832;BME280;1680;48.106;11.708;2023-05-19T10:50:44;95812.38;;;15.35;71.89
1832;BME280;1680;48.106;11.708;2023-05-19T10:53:15;95811.25;;;15.52;71.83
1832;BME280;1680;48.106;11.708;2023-05-19T10:55:44;95803.16;;;15.59;69.85
1832;BME280;1680;48.106;11.708;2023-05-19T10:58:13;95803.84;;;15.50;70.63
1832;BME280;1680;48.106;11.708;2023-05-19T11:00:40;95807.38;;;15.39;70.63
1832;BME280;1680;48.106;11.708;2023-05-19T11:03:13;95805.91;;;15.26;71.70
1832;BME280;1680;48.106;11.708;2023-05-19T11:05:43;95788.41;;;15.04;73.22
1832;BME280;1680;48.106;11.708;2023-05-19T11:08:11;95809.03;;;15.07;73.67
1832;BME280;1680;48.106;11.708;2023-05-19T11:10:42;95810.69;;;14.75;74.47
1832;BME280;1680;48.106;11.708;2023-05-19T11:13:18;95804.94;;;14.45;76.28
1832;BME280;1680;48.106;11.708;2023-05-19T11:15:46;95800.66;;;14.77;75.39
1832;BME280;1680;48.106;11.708;2023-05-19T11:18:14;95804.56;;;15.07;73.55
1832;BME280;1680;48.106;11.708;2023-05-19T11:20:41;95802.88;;;15.01;72.89
1832;BME280;1680;48.106;11.708;2023-05-19T11:23:16;95794.16;;;15.01;73.50
1832;BME280;1680;48.106;11.708;2023-05-19T11:25:45;95788.16;;;15.05;73.81
1832;BME280;1680;48.106;11.708;2023-05-19T11:28:14;95794.63;;;15.31;72.76
1832;BME280;1680;48.106;11.708;2023-05-19T11:30:44;95794.72;;;15.41;72.84
1832;BME280;1680;48.106;11.708;2023-05-19T11:33:14;95793.81;;;15.52;73.24
1832;BME280;1680;48.106;11.708;2023-05-19T11:35:45;95752.41;;;15.36;71.34
1832;BME280;1680;48.106;11.708;2023-05-19T11:38:13;95789.69;;;15.82;71.72
1832;BME280;1680;48.106;11.708;2023-05-19T11:40:42;95774.09;;;15.85;70.47
1832;BME280;1680;48.106;11.708;2023-05-19T11:43:11;95804.88;;;15.91;69.15
1832;BME280;1680;48.106;11.708;2023-05-19T11:45:38;95800.94;;;15.72;68.59
1832;BME280;1680;48.106;11.708;2023-05-19T11:48:09;95808.75;;;15.62;69.05
1832;BME280;1680;48.106;11.708;2023-05-19T11:50:39;95792.72;;;15.48;70.19
1832;BME280;1680;48.106;11.708;2023-05-19T11:53:10;95806.53;;;15.54;70.92
1832;BME280;1680;48.106;11.708;2023-05-19T11:55:42;95799.78;;;15.63;71.54
1832;BME280;1680;48.106;11.708;2023-05-19T11:58:11;95810.00;;;15.76;72.53
1832;BME280;1680;48.106;11.708;2023-05-19T12:00:39;95808.38;;;15.75;70.50
1832;BME280;1680;48.106;11.708;2023-05-19T12:03:07;95801.97;;;15.71;68.37
1832;BME280;1680;48.106;11.708;2023-05-19T12:05:36;95799.97;;;15.57;69.49
1832;BME280;1680;48.106;11.708;2023-05-19T12:08:04;95803.47;;;15.62;69.85
1832;BME280;1680;48.106;11.708;2023-05-19T12:10:32;95803.22;;;15.43;71.03
1832;BME280;1680;48.106;11.708;2023-05-19T12:13:02;95801.44;;;15.48;70.72
1832;BME280;1680;48.106;11.708;2023-05-19T12:15:30;95798.38;;;15.35;70.67
1832;BME280;1680;48.106;11.708;2023-05-19T12:17:59;95741.03;;;14.97;71.22
1832;BME280;1680;48.106;11.708;2023-05-19T12:20:28;95800.88;;;15.46;71.20
1832;BME280;1680;48.106;11.708;2023-05-19T12:22:57;95798.66;;;15.22;73.54
1832;BME280;1680;48.106;11.708;2023-05-19T12:25:24;95805.81;;;15.21;72.55
1832;BME280;1680;48.106;11.708;2023-05-19T12:27:56;95811.28;;;15.15;72.44
1832;BME280;1680;48.106;11.708;2023-05-19T12:30:28;95798.28;;;15.13;73.74
1832;BME280;1680;48.106;11.708;2023-05-19T12:32:56;95800.06;;;15.08;73.33
1832;BME280;1680;48.106;11.708;2023-05-19T12:35:26;95795.53;;;15.25;73.60
1832;BME280;1680;48.106;11.708;2023-05-19T12:37:54;95799.97;;;15.19;73.90
1832;BME280;1680;48.106;11.708;2023-05-19T12:40:22;95798.63;;;15.17;74.42
1832;BME280;1680;48.106;11.708;2023-05-19T12:42:50;95798.19;;;15.25;72.68
1832;BME280;1680;48.106;11.708;2023-05-19T12:45:22;95805.34;;;15.24;72.01
1832;BME280;1680;48.106;11.708;2023-05-19T12:47:51;95803.34;;;15.15;74.38
1832;BME280;1680;48.106;11.708;2023-05-19T12:50:18;95803.59;;;15.30;72.20
1832;BME280;1680;48.106;11.708;2023-05-19T12:52:48;95782.81;;;15.22;71.71
1832;BME280;1680;48.106;11.708;2023-05-19T12:55:16;95801.06;;;15.40;70.99
1832;BME280;1680;48.106;11.708;2023-05-19T12:57:48;95795.03;;;15.44;70.71
1832;BME280;1680;48.106;11.708;2023-05-19T13:00:17;95785.56;;;15.69;69.85
1832;BME280;1680;48.106;11.708;2023-05-19T13:02:57;95786.53;;;16.11;71.04
1832;BME280;1680;48.106;11.708;2023-05-19T13:05:25;95783.25;;;16.52;66.21
1832;BME280;1680;48.106;11.708;2023-05-19T13:07:54;95780.94;;;16.60;67.22
1832;BME280;1680;48.106;11.708;2023-05-19T13:10:21;95785.91;;;16.57;66.29
1832;BME280;1680;48.106;11.708;2023-05-19T13:12:51;95758.44;;;16.63;66.73
1832;BME280;1680;48.106;11.708;2023-05-19T13:15:20;95785.69;;;16.95;65.64
1832;BME280;1680;48.106;11.708;2023-05-19T13:17:47;95784.59;;;16.91;65.38